Skip Navigation Links
NOAA logo - Click to go to the NOAA homepage
NOAA's National Weather Service
Alaska Aviation Weather Unit
  NWS logo - Click to go to the NWS homepage
Left Navbar Graphic     10 AKDT = 18 GMT

   
NOAA is celebrating 200 years of science, service, and stewardship. Visit the NOAA 200th celebration Web site to learn more.
USA.gov is the U.S. Government's official Web portal to all Federal, state and local government Web resources and services.
Facebook
NWS on Facebook

Important Change Regarding the AAWU Web Presence

 

Over the last several months, the AAWU has been working to navigate its webpages to a nationally supported server. Security, as well as other needs, have necessitated the change.  We have been given an extension for the site changeover while we diligently work at addressing feedback received. As of July 14, 2017, aawu.arh.noaa.gov will be discontinued. The new AAWU web address is weather.gov/aawu. It is now live and will run in-parallel with the old site until it is discontinued on July 14, 2017. Please continue to send any feedback or questions regarding the new webpages to nws.ar.aawu.webauthors@noaa.gov.  Thank you for your patience during this time of transition.
AAWU Home :: Display TAF Add Bookmark
TAF PABE 261726Z 2618/2718  01007KT P6SM OVC006
     FM262100 36011KT P6SM SCT008 BKN040
     FM270000 36011KT P6SM SKC
     FM271000 34011KT P6SM VCFG FEW008=

3157
FTAK31 PANC 261726
TAFADL
TAF
SPECI PABE 261203Z 34006KT 1/2SM R19R/2600V4000FT FG OVC004 05/05 A2985
     RMK AO2 T00500050=

METAR PABE 261253Z 36006KT 1 1/2SM R19R/6000VP6000FT BR OVC004 06/06
     A2984 RMK AO2 SLP107 T00560056=

PABE 261322Z 02007KT 1 3/4SM R19R/4500VP6000FT BR OVC002 07/07
A2984=

PABE 261322Z 02007KT 1 3/4SM R19R/4500VP6000FT BR OVC002 07/07
     A2984 RMK AO2 T00670067=

SPECI PABE 261341Z 02008KT 3SM R19R/5500VP6000FT BR OVC003 07/07 A2984
     RMK AO2 T00670067=

METAR PABE 261353Z 03008KT 10SM OVC003 07/07 A2984 RMK AO2 SLP105
     T00670067=

METAR PABE 261453Z AUTO 02007KT 10SM OVC003 06/06 A2984 RMK AO2 SLP105
     T00610061 58002 TSNO=

PABE 261455Z 02009KT 10SM OVC003 06/06 A2984=

PABE 261455Z 02009KT 10SM OVC003 06/06 A2984 RMK AO2 T00610061=

PABE 261542Z 02006KT 10SM OVC006 06/06 A2984=

SPECI PABE 261542Z 02006KT 10SM OVC006 06/06 A2984 RMK AO2 CIG 004V007
     T00560056=

METAR PABE 261553Z 02007KT 10SM OVC006 06/06 A2984 RMK AO2 SLP107
     T00560056=

METAR PABE 261653Z 01007KT 10SM OVC005 06/06 A2985 RMK AO2 CIG 004V008
     SLP109 T00560056=

METAR PABE 261753Z 02009KT 10SM OVC006 06/06 A2985 RMK AO2 SLP109
     T00560056 10067 20044 51003=


NOAA's National Weather Service
Alaska Aviation Weather Unit
6930 Sand Lake Road
Anchorage, AK 99502-1845
Disclaimer
Credits
Glossary
Privacy Policy
About Us
Career Opportunities
Contact AAWU Internet Services Site last modified: April, 17th 2012